createdAt,value
2024-03-14T00:02:33.004Z,5.40
2024-03-14T00:04:59.809Z,4.10
2024-03-14T00:07:27.252Z,4.50
2024-03-14T00:09:53.879Z,4.80
2024-03-14T00:12:20.499Z,7.40
2024-03-14T00:14:51.612Z,4.10
2024-03-14T00:17:24.176Z,5.50
2024-03-14T00:19:52.106Z,5.40
2024-03-14T00:22:18.983Z,5.30
2024-03-14T00:24:46.888Z,5.50
2024-03-14T00:27:14.910Z,4.70
2024-03-14T00:29:43.258Z,5.10
2024-03-14T00:32:10.262Z,4.40
2024-03-14T00:34:37.555Z,5.20
2024-03-14T00:37:04.527Z,4.70
2024-03-14T00:39:33.266Z,5.70
2024-03-14T00:42:00.243Z,6.60
2024-03-14T00:44:26.977Z,5.40
2024-03-14T00:46:53.547Z,5.80
2024-03-14T00:49:20.271Z,6.30
2024-03-14T00:51:47.343Z,5.80
2024-03-14T00:54:14.221Z,6.60
2024-03-14T00:56:42.499Z,6.70
2024-03-14T00:59:10.689Z,5.80
2024-03-14T01:01:37.538Z,4.90
2024-03-14T01:04:05.450Z,5.70
2024-03-14T01:06:32.887Z,4.60
2024-03-14T01:09:01.032Z,5.30
2024-03-14T01:11:29.064Z,4.80
2024-03-14T01:13:56.157Z,7.10
2024-03-14T01:16:22.661Z,5.20
2024-03-14T01:18:51.513Z,4.80
2024-03-14T01:21:18.389Z,6.40
2024-03-14T01:23:45.335Z,6.50
2024-03-14T01:26:12.391Z,5.10
2024-03-14T01:28:38.981Z,5.10
2024-03-14T01:31:06.721Z,4.50
2024-03-14T01:33:33.838Z,6.30
2024-03-14T01:36:02.247Z,5.30
2024-03-14T01:38:29.083Z,4.40
2024-03-14T01:40:55.788Z,6.00
2024-03-14T01:43:23.440Z,6.00
2024-03-14T01:45:50.530Z,4.20
2024-03-14T01:48:17.249Z,5.30
2024-03-14T01:50:43.962Z,6.20
2024-03-14T01:53:11.381Z,5.10
2024-03-14T01:55:39.291Z,4.60
2024-03-14T01:58:08.956Z,4.60
2024-03-14T02:00:44.907Z,5.10
2024-03-14T02:03:14.652Z,5.60
2024-03-14T02:05:53.073Z,6.20
2024-03-14T02:08:21.384Z,4.70
2024-03-14T02:10:48.086Z,4.60
2024-03-14T02:13:15.333Z,5.10
2024-03-14T02:15:41.956Z,5.80
2024-03-14T02:18:10.119Z,5.80
2024-03-14T02:20:38.343Z,5.30
2024-03-14T02:23:05.987Z,6.10
2024-03-14T02:27:59.403Z,4.20
2024-03-14T02:30:26.177Z,5.60
2024-03-14T02:32:53.258Z,6.70
2024-03-14T02:35:20.112Z,6.20
2024-03-14T02:37:47.758Z,8.10
2024-03-14T02:40:14.329Z,6.80
2024-03-14T02:42:41.025Z,5.30
2024-03-14T02:45:08.602Z,6.10
2024-03-14T02:50:07.933Z,7.40
2024-03-14T02:52:34.793Z,8.70
2024-03-14T02:55:02.971Z,6.10
2024-03-14T02:57:30.471Z,7.30
2024-03-14T02:59:57.289Z,6.20
2024-03-14T03:02:26.658Z,7.70
2024-03-14T03:04:53.168Z,6.00
2024-03-14T03:07:19.765Z,5.30
2024-03-14T03:09:47.508Z,6.10
2024-03-14T03:12:14.259Z,5.10
2024-03-14T03:14:40.921Z,7.80
2024-03-14T03:17:08.216Z,7.10
2024-03-14T03:19:37.477Z,7.60
2024-03-14T03:22:06.894Z,5.40
2024-03-14T03:24:33.699Z,6.70
2024-03-14T03:27:04.476Z,6.00
2024-03-14T03:29:31.329Z,5.70
2024-03-14T03:31:57.859Z,5.10
2024-03-14T03:34:25.042Z,5.80
2024-03-14T03:36:52.061Z,6.30
2024-03-14T03:39:19.687Z,8.00
2024-03-14T03:41:47.712Z,6.80
2024-03-14T03:44:14.603Z,8.20
2024-03-14T03:46:45.648Z,6.30
2024-03-14T03:49:12.517Z,6.00
2024-03-14T03:51:39.091Z,5.50
2024-03-14T03:54:06.298Z,6.00
2024-03-14T03:56:33.149Z,6.30
2024-03-14T03:58:59.704Z,7.40
2024-03-14T04:01:28.522Z,6.80
2024-03-14T04:03:55.746Z,7.70
2024-03-14T04:06:22.873Z,7.10
2024-03-14T04:08:49.870Z,8.10
2024-03-14T04:11:17.500Z,6.90
2024-03-14T04:13:44.736Z,7.50
2024-03-14T04:16:14.271Z,8.30
2024-03-14T04:18:41.146Z,9.50
2024-03-14T04:21:14.700Z,7.20
2024-03-14T04:23:42.048Z,8.10
2024-03-14T04:26:10.740Z,6.60
2024-03-14T04:28:39.249Z,6.00
2024-03-14T04:31:05.875Z,6.90
2024-03-14T04:33:35.398Z,8.00
2024-03-14T04:36:04.808Z,7.70
2024-03-14T04:38:33.464Z,8.70
2024-03-14T04:41:01.232Z,8.90
2024-03-14T04:43:28.480Z,8.10
2024-03-14T04:45:55.648Z,7.60
2024-03-14T04:48:22.307Z,7.40
2024-03-14T04:50:50.440Z,7.20
2024-03-14T04:53:17.632Z,7.60
2024-03-14T04:55:47.296Z,7.70
2024-03-14T04:58:17.328Z,7.60
2024-03-14T05:00:47.441Z,8.00
2024-03-14T05:03:14.965Z,8.20
2024-03-14T05:08:08.707Z,8.40
2024-03-14T05:10:35.709Z,7.30
2024-03-14T05:13:02.639Z,7.10
2024-03-14T05:15:29.994Z,6.40
2024-03-14T05:18:03.135Z,6.00
2024-03-14T05:20:30.595Z,8.30
2024-03-14T05:22:57.702Z,8.60
2024-03-14T05:25:25.094Z,8.30
2024-03-14T05:27:52.332Z,18.00
2024-03-14T05:30:19.925Z,12.00
2024-03-14T05:32:46.659Z,8.30
2024-03-14T05:35:14.102Z,7.30
2024-03-14T05:37:42.823Z,8.50
2024-03-14T05:40:12.134Z,8.30
2024-03-14T05:42:40.577Z,7.20
2024-03-14T05:45:10.491Z,40.70
2024-03-14T05:47:41.077Z,26.00
2024-03-14T05:50:10.842Z,32.70
2024-03-14T05:52:37.557Z,14.80
2024-03-14T05:55:04.875Z,11.90
2024-03-14T05:57:32.111Z,7.70
2024-03-14T06:00:02.187Z,6.50
2024-03-14T06:02:28.950Z,7.80
2024-03-14T06:04:55.900Z,8.30
2024-03-14T06:07:23.276Z,16.50
2024-03-14T06:09:51.739Z,8.70
2024-03-14T06:12:18.807Z,11.50
2024-03-14T06:14:46.872Z,6.80
2024-03-14T06:17:14.325Z,19.50
2024-03-14T06:19:41.107Z,11.90
2024-03-14T06:22:07.884Z,11.10
2024-03-14T06:24:35.039Z,8.80
2024-03-14T06:27:01.930Z,6.70
2024-03-14T06:29:28.658Z,6.30
2024-03-14T06:31:55.269Z,9.00
2024-03-14T06:34:21.776Z,8.00
2024-03-14T06:36:48.346Z,8.20
2024-03-14T06:39:18.399Z,8.90
2024-03-14T06:41:45.178Z,9.60
2024-03-14T06:44:13.159Z,9.40
2024-03-14T06:46:41.062Z,9.60
2024-03-14T06:49:13.814Z,8.20
2024-03-14T06:51:43.531Z,9.60
2024-03-14T06:54:15.841Z,9.10
2024-03-14T06:56:42.384Z,9.50
2024-03-14T06:59:14.445Z,17.60
2024-03-14T07:01:41.608Z,15.30
2024-03-14T07:04:09.720Z,10.50
2024-03-14T07:06:36.850Z,8.50
2024-03-14T07:09:05.180Z,6.50
2024-03-14T07:11:32.462Z,8.60
2024-03-14T07:14:01.152Z,9.20
2024-03-14T07:16:27.935Z,7.60
2024-03-14T07:18:57.630Z,8.90
2024-03-14T07:21:24.308Z,6.50
2024-03-14T07:23:51.329Z,7.00
2024-03-14T07:26:24.566Z,8.10
2024-03-14T07:28:55.331Z,8.70
2024-03-14T07:31:22.661Z,9.60
2024-03-14T07:33:50.509Z,7.50
2024-03-14T07:36:17.613Z,8.30
2024-03-14T07:38:45.757Z,6.80
2024-03-14T07:41:15.438Z,7.80
2024-03-14T07:43:41.931Z,7.30
2024-03-14T07:46:09.544Z,7.20
2024-03-14T07:51:08.867Z,7.80
2024-03-14T07:53:36.054Z,7.80
2024-03-14T07:56:03.218Z,6.50
2024-03-14T07:58:29.846Z,8.20
2024-03-14T08:00:57.147Z,9.20
2024-03-14T08:05:51.752Z,5.90
2024-03-14T08:08:25.636Z,6.70
2024-03-14T08:10:54.298Z,9.20
2024-03-14T08:13:25.307Z,6.60
2024-03-14T08:15:55.424Z,6.10
2024-03-14T08:18:23.599Z,8.20
2024-03-14T08:20:51.523Z,9.40
2024-03-14T08:23:18.081Z,6.90
2024-03-14T08:25:44.963Z,13.40
2024-03-14T08:28:13.114Z,7.90
2024-03-14T08:30:41.079Z,7.40
2024-03-14T08:33:10.753Z,5.90
2024-03-14T08:35:43.502Z,8.40
2024-03-14T08:38:10.799Z,8.40
2024-03-14T08:40:37.738Z,6.40
2024-03-14T08:43:04.595Z,6.90
2024-03-14T08:45:36.606Z,9.20
2024-03-14T08:48:09.180Z,7.60
2024-03-14T08:50:36.904Z,6.10
2024-03-14T08:53:04.116Z,9.50
2024-03-14T08:55:34.813Z,5.90
2024-03-14T08:58:04.466Z,7.50
2024-03-14T09:00:31.747Z,6.60
2024-03-14T09:03:01.210Z,9.00
2024-03-14T09:05:29.092Z,6.20
2024-03-14T09:07:57.599Z,5.70
2024-03-14T09:10:27.269Z,7.30
2024-03-14T09:12:55.785Z,6.00
2024-03-14T09:15:23.340Z,8.30
2024-03-14T09:17:51.725Z,9.40
2024-03-14T09:20:21.328Z,8.60
2024-03-14T09:22:55.447Z,6.20
2024-03-14T09:25:23.653Z,8.30
2024-03-14T09:27:52.706Z,7.00
2024-03-14T09:30:20.397Z,6.50
2024-03-14T09:32:47.321Z,6.90
2024-03-14T09:35:26.595Z,7.50
2024-03-14T09:37:56.263Z,10.60
2024-03-14T09:40:24.661Z,6.20
2024-03-14T09:43:01.104Z,6.60
2024-03-14T09:45:30.322Z,7.50
2024-03-14T09:47:58.693Z,7.10
2024-03-14T09:50:28.190Z,8.70
2024-03-14T09:52:56.522Z,8.10
2024-03-14T09:55:25.298Z,6.50
2024-03-14T09:57:54.189Z,6.10
2024-03-14T10:00:21.592Z,7.00
2024-03-14T10:05:20.544Z,4.70
2024-03-14T10:07:48.752Z,6.60
2024-03-14T10:10:17.111Z,7.40
2024-03-14T10:12:55.527Z,6.90
2024-03-14T10:15:23.647Z,6.20
2024-03-14T10:17:54.015Z,8.30
2024-03-14T10:20:21.765Z,4.60
2024-03-14T10:22:50.038Z,5.70
2024-03-14T10:25:19.208Z,14.00
2024-03-14T10:28:05.620Z,7.00
2024-03-14T10:30:38.807Z,5.60
2024-03-14T10:33:11.380Z,7.10
2024-03-14T10:35:40.379Z,10.50
2024-03-14T10:38:12.840Z,8.90
2024-03-14T10:40:43.359Z,4.60
2024-03-14T10:43:15.507Z,5.70
2024-03-14T10:45:43.814Z,4.30
2024-03-14T10:48:11.976Z,5.80
2024-03-14T10:50:39.137Z,5.80
2024-03-14T10:55:34.894Z,4.80
2024-03-14T10:58:05.472Z,4.10
2024-03-14T11:00:35.891Z,4.60
2024-03-14T11:03:05.129Z,4.30
2024-03-14T11:05:33.390Z,3.70
2024-03-14T11:08:04.722Z,5.00
2024-03-14T11:10:35.445Z,4.10
2024-03-14T11:13:18.480Z,4.60
2024-03-14T11:15:45.725Z,5.40
2024-03-14T11:18:15.606Z,4.10
2024-03-14T11:20:48.010Z,3.20
2024-03-14T11:23:19.543Z,4.50
2024-03-14T11:25:50.689Z,4.80
2024-03-14T11:28:17.944Z,4.50
2024-03-14T11:30:57.376Z,4.20
2024-03-14T11:33:28.621Z,3.50
2024-03-14T11:35:59.435Z,4.50
2024-03-14T11:38:31.274Z,3.90
2024-03-14T11:41:07.619Z,4.60
2024-03-14T11:43:35.386Z,4.10
2024-03-14T11:46:10.161Z,4.10
2024-03-14T11:48:40.088Z,4.60
2024-03-14T11:51:12.470Z,3.30
2024-03-14T11:53:40.908Z,3.70
2024-03-14T11:56:11.692Z,3.40
2024-03-14T11:58:42.531Z,3.20
2024-03-14T12:01:15.560Z,3.90
2024-03-14T12:03:45.670Z,3.70
2024-03-14T12:06:17.545Z,4.10
2024-03-14T12:08:44.329Z,3.20
2024-03-14T12:13:37.708Z,4.20
2024-03-14T12:16:05.757Z,3.60
2024-03-14T12:18:34.105Z,3.40
2024-03-14T12:21:02.002Z,3.70
2024-03-14T12:23:30.308Z,5.80
2024-03-14T12:26:03.977Z,3.80
2024-03-14T12:28:33.231Z,2.60
2024-03-14T12:31:03.029Z,2.80
2024-03-14T12:33:32.470Z,2.50
2024-03-14T12:36:02.093Z,3.80
2024-03-14T12:38:29.771Z,3.00
2024-03-14T12:41:00.804Z,3.50
2024-03-14T12:43:29.021Z,3.40
2024-03-14T12:45:56.138Z,2.00
2024-03-14T12:48:23.847Z,2.50
2024-03-14T12:50:54.973Z,2.10
2024-03-14T12:53:25.543Z,2.50
2024-03-14T12:55:54.005Z,2.50
2024-03-14T12:58:24.232Z,2.70
2024-03-14T13:00:55.681Z,1.90
2024-03-14T13:03:25.461Z,2.30
2024-03-14T13:05:57.486Z,2.10
2024-03-14T13:08:29.337Z,2.20
2024-03-14T13:11:17.430Z,2.70
2024-03-14T13:13:44.224Z,2.50
2024-03-14T13:16:30.695Z,2.50
2024-03-14T13:18:57.511Z,2.70
2024-03-14T13:21:27.044Z,2.00
2024-03-14T13:23:57.085Z,2.30
2024-03-14T13:26:24.953Z,1.60
2024-03-14T13:28:55.165Z,2.80
2024-03-14T13:31:27.212Z,2.60
2024-03-14T13:33:55.597Z,1.50
2024-03-14T13:36:22.510Z,1.60
2024-03-14T13:38:49.238Z,2.50
2024-03-14T13:43:42.599Z,1.80
2024-03-14T13:48:37.644Z,6.10
2024-03-14T13:51:08.374Z,3.60
2024-03-14T13:53:35.064Z,2.50
2024-03-14T13:56:02.126Z,2.80
2024-03-14T13:58:29.268Z,3.20
2024-03-14T14:00:57.920Z,3.50
2024-03-14T14:03:25.209Z,2.90
2024-03-14T14:06:05.105Z,4.50
2024-03-14T14:08:32.141Z,3.50
2024-03-14T14:10:58.807Z,2.70
2024-03-14T14:13:26.537Z,2.20
2024-03-14T14:15:53.779Z,2.30
2024-03-14T14:18:20.621Z,3.10
2024-03-14T14:23:14.125Z,2.90
2024-03-14T14:25:40.751Z,2.10
2024-03-14T14:28:10.616Z,2.00
2024-03-14T14:30:37.878Z,2.70
2024-03-14T14:33:05.232Z,2.20
2024-03-14T14:35:32.204Z,3.20
2024-03-14T14:37:59.197Z,1.90
2024-03-14T14:40:25.934Z,2.00
2024-03-14T14:42:55.293Z,2.20
2024-03-14T14:45:22.475Z,2.30
2024-03-14T14:47:49.085Z,2.40
2024-03-14T14:50:15.753Z,2.80
2024-03-14T14:52:42.562Z,2.30
2024-03-14T14:55:13.423Z,2.20
2024-03-14T14:57:44.328Z,3.60
2024-03-14T15:00:15.191Z,2.50
2024-03-14T15:02:48.254Z,2.80
2024-03-14T15:05:15.257Z,2.50
2024-03-14T15:10:13.600Z,3.80
2024-03-14T15:12:49.698Z,3.10
2024-03-14T15:15:23.798Z,3.40
2024-03-14T15:17:52.708Z,2.60
2024-03-14T15:20:23.215Z,2.90
2024-03-14T15:22:53.244Z,4.10
2024-03-14T15:25:21.277Z,2.40
2024-03-14T15:27:48.251Z,2.00
2024-03-14T15:30:17.082Z,3.30
2024-03-14T15:32:44.953Z,2.30
2024-03-14T15:35:16.951Z,3.20
2024-03-14T15:37:45.319Z,2.60
2024-03-14T15:40:15.162Z,2.80
2024-03-14T15:42:42.970Z,2.00
2024-03-14T15:45:17.304Z,2.40
2024-03-14T15:47:46.848Z,2.90
2024-03-14T15:50:14.750Z,3.70
2024-03-14T15:52:41.558Z,3.40
2024-03-14T15:55:09.676Z,2.30
2024-03-14T15:57:36.537Z,2.50
2024-03-14T16:00:03.719Z,2.30
2024-03-14T16:02:30.725Z,4.90
2024-03-14T16:04:57.326Z,3.40
2024-03-14T16:07:23.879Z,2.80
2024-03-14T16:09:50.431Z,3.50
2024-03-14T16:12:19.895Z,5.80
2024-03-14T16:14:48.256Z,4.30
2024-03-14T16:17:16.681Z,6.70
2024-03-14T16:19:44.240Z,3.80
2024-03-14T16:22:11.226Z,4.30
2024-03-14T16:24:38.720Z,3.50
2024-03-14T16:27:06.369Z,2.90
2024-03-14T16:29:33.131Z,3.90
2024-03-14T16:32:02.707Z,3.00
2024-03-14T16:34:32.597Z,4.50
2024-03-14T16:37:00.432Z,4.90
2024-03-14T16:39:27.574Z,4.10
2024-03-14T16:41:54.473Z,3.10
2024-03-14T16:44:21.180Z,2.50
2024-03-14T16:46:47.722Z,3.40
2024-03-14T16:49:14.263Z,4.30
2024-03-14T16:51:43.590Z,4.10
2024-03-14T16:54:14.211Z,3.70
2024-03-14T16:56:40.995Z,3.20
2024-03-14T16:59:08.557Z,3.40
2024-03-14T17:01:36.686Z,3.20
2024-03-14T17:04:04.133Z,3.20
2024-03-14T17:06:31.675Z,3.10
2024-03-14T17:08:58.681Z,3.70
2024-03-14T17:11:25.548Z,3.10
2024-03-14T17:13:53.694Z,4.60
2024-03-14T17:16:24.534Z,2.80
2024-03-14T17:18:52.451Z,2.40
2024-03-14T17:21:22.201Z,3.80
2024-03-14T17:23:49.376Z,3.40
2024-03-14T17:26:17.990Z,2.90
2024-03-14T17:28:44.912Z,8.50
2024-03-14T17:31:14.413Z,7.60
2024-03-14T17:33:43.748Z,5.50
2024-03-14T17:36:16.536Z,4.00
2024-03-14T17:38:44.586Z,3.70
2024-03-14T17:41:12.173Z,3.60
2024-03-14T17:43:39.637Z,2.40
2024-03-14T17:46:07.960Z,2.40
2024-03-14T17:48:35.412Z,3.20
2024-03-14T17:51:02.243Z,3.20
2024-03-14T17:53:29.465Z,2.40
2024-03-14T17:55:56.229Z,2.20
2024-03-14T17:58:22.832Z,2.60
2024-03-14T18:00:49.644Z,1.90
2024-03-14T18:03:18.165Z,2.10
2024-03-14T18:05:45.532Z,4.50
2024-03-14T18:10:40.103Z,4.00
2024-03-14T18:13:07.308Z,4.80
2024-03-14T18:18:01.742Z,2.70
2024-03-14T18:20:28.762Z,2.60
2024-03-14T18:22:56.531Z,3.30
2024-03-14T18:25:23.395Z,3.10
2024-03-14T18:27:52.429Z,3.80
2024-03-14T18:30:22.015Z,3.10
2024-03-14T18:32:50.884Z,2.90
2024-03-14T18:35:19.125Z,2.90
2024-03-14T18:37:47.099Z,2.60
2024-03-14T18:40:19.757Z,2.60
2024-03-14T18:42:48.393Z,2.50
2024-03-14T18:45:17.559Z,3.30
2024-03-14T18:47:45.214Z,6.10
2024-03-14T18:50:14.879Z,17.80
2024-03-14T18:52:42.463Z,11.60
2024-03-14T18:55:10.833Z,4.90
2024-03-14T18:57:38.419Z,2.60
2024-03-14T19:02:35.245Z,5.10
2024-03-14T19:05:02.065Z,2.50
2024-03-14T19:07:28.889Z,2.90
2024-03-14T19:09:55.430Z,2.70
2024-03-14T19:12:22.321Z,3.60
2024-03-14T19:14:50.495Z,2.90
2024-03-14T19:17:20.858Z,3.10
2024-03-14T19:19:51.708Z,2.70
2024-03-14T19:22:18.863Z,3.30
2024-03-14T19:24:46.117Z,2.60
2024-03-14T19:29:40.398Z,3.10
2024-03-14T19:32:07.234Z,3.40
2024-03-14T19:34:34.664Z,4.40
2024-03-14T19:39:34.448Z,2.80
2024-03-14T19:42:02.318Z,2.80
2024-03-14T19:44:30.622Z,3.40
2024-03-14T19:46:58.618Z,4.10
2024-03-14T19:49:25.829Z,3.40
2024-03-14T19:51:52.646Z,3.60
2024-03-14T19:54:19.543Z,3.20
2024-03-14T19:56:48.671Z,3.50
2024-03-14T19:59:15.609Z,3.20
2024-03-14T20:01:42.345Z,3.70
2024-03-14T20:04:09.758Z,3.70
2024-03-14T20:09:04.827Z,3.60
2024-03-14T20:11:31.555Z,4.80
2024-03-14T20:13:58.414Z,5.00
2024-03-14T20:16:25.017Z,3.80
2024-03-14T20:18:51.848Z,4.20
2024-03-14T20:21:18.654Z,4.30
2024-03-14T20:23:48.762Z,4.10
2024-03-14T20:26:16.657Z,5.00
2024-03-14T20:28:43.789Z,4.80
2024-03-14T20:31:10.510Z,3.70
2024-03-14T20:33:38.136Z,4.30
2024-03-14T20:36:57.216Z,5.30
2024-03-14T20:39:25.456Z,7.40
2024-03-14T20:41:52.096Z,5.60
2024-03-14T20:44:18.709Z,6.00
2024-03-14T20:46:45.817Z,8.40
2024-03-14T20:49:14.013Z,7.40
2024-03-14T20:51:40.849Z,7.90
2024-03-14T20:54:09.387Z,8.70
2024-03-14T20:56:43.460Z,7.40
2024-03-14T20:59:14.418Z,6.60
2024-03-14T21:01:40.881Z,8.10
2024-03-14T21:04:10.576Z,8.00
2024-03-14T21:06:38.434Z,7.70
2024-03-14T21:09:08.623Z,7.30
2024-03-14T21:11:35.567Z,7.00
2024-03-14T21:14:02.721Z,8.00
2024-03-14T21:16:30.257Z,9.70
2024-03-14T21:21:23.810Z,6.80
2024-03-14T21:23:50.706Z,7.70
2024-03-14T21:26:17.215Z,8.20
2024-03-14T21:28:43.681Z,7.00
2024-03-14T21:31:10.233Z,7.60
2024-03-14T21:33:38.003Z,8.30
2024-03-14T21:36:06.118Z,7.60
2024-03-14T21:38:33.796Z,9.00
2024-03-14T21:41:00.352Z,7.00
2024-03-14T21:43:26.765Z,8.20
2024-03-14T21:45:54.211Z,7.60
2024-03-14T21:50:48.244Z,8.20
2024-03-14T21:53:15.437Z,6.40
2024-03-14T21:55:42.394Z,5.80
2024-03-14T21:58:08.982Z,7.20
2024-03-14T22:00:35.578Z,7.10
2024-03-14T22:03:02.255Z,6.00
2024-03-14T22:05:31.374Z,7.90
2024-03-14T22:07:57.836Z,6.80
2024-03-14T22:10:24.589Z,7.40
2024-03-14T22:12:51.279Z,5.70
2024-03-14T22:15:18.953Z,4.80
2024-03-14T22:17:46.067Z,6.50
2024-03-14T22:20:19.987Z,6.90
2024-03-14T22:22:47.246Z,7.70
2024-03-14T22:25:14.621Z,6.10
2024-03-14T22:27:43.082Z,6.80
2024-03-14T22:30:11.040Z,6.90
2024-03-14T22:32:37.985Z,8.60
2024-03-14T22:35:05.626Z,8.20
2024-03-14T22:39:58.982Z,6.10
2024-03-14T22:42:26.103Z,7.40
2024-03-14T22:44:53.398Z,7.80
2024-03-14T22:47:20.059Z,6.30
2024-03-14T22:49:46.538Z,7.70
2024-03-14T22:52:12.990Z,7.00
2024-03-14T22:54:39.757Z,6.00
2024-03-14T22:57:08.341Z,7.30
2024-03-14T22:59:36.468Z,6.20
2024-03-14T23:02:04.620Z,6.20
2024-03-14T23:04:33.587Z,6.70
2024-03-14T23:07:00.357Z,8.40
2024-03-14T23:09:27.672Z,8.20
2024-03-14T23:11:54.156Z,7.90
2024-03-14T23:14:20.694Z,8.30
2024-03-14T23:16:47.643Z,5.80
2024-03-14T23:19:14.094Z,8.30
2024-03-14T23:21:41.630Z,6.40
2024-03-14T23:24:08.859Z,7.50
2024-03-14T23:26:35.476Z,8.70
2024-03-14T23:29:05.500Z,10.20
2024-03-14T23:31:32.305Z,6.20
2024-03-14T23:33:59.933Z,6.60
2024-03-14T23:36:27.917Z,8.30
2024-03-14T23:38:55.102Z,6.50
2024-03-14T23:41:22.384Z,7.70
2024-03-14T23:43:52.966Z,7.70
2024-03-14T23:46:21.207Z,6.30
2024-03-14T23:48:48.285Z,10.70
2024-03-14T23:51:16.291Z,6.80
2024-03-14T23:53:43.355Z,7.20
2024-03-14T23:56:10.363Z,6.70
2024-03-14T23:58:37.114Z,7.60
